Chassell, Michigan
Current Conditions -  °F | °C
As of 10:53 AM on Friday 24 Oct 2014 (Local Time) from KCMX Reporting Station
Moderate Fog Moderate Fog  
Wind Chill: 41°   Ceiling: 100
Heat Index: 45°   Visibility: 0mi
Dew Point: 43°   Wind: 7mph
Humidity: 93%   Direction: 150°SSE
Pressure: 29.9"   Gusts: NA
Location:  47.03°N, 88.53°W
Report Text: KCMX 241453Z AUTO 15006KT M1/4SM FG VV001 07/06 A2990 RMK AO2 SLP134 T00720061 58006
Loading
Personal Weather Stations






























Interactive Weather Map New forecast layout! Learn more

10-Day Weather Forecast

Advertisements
Track Severe Weather on mobile